createdAt,value
2019-05-18T00:00:03.360Z,7.90
2019-05-18T00:02:31.775Z,7.80
2019-05-18T00:05:00.170Z,7.80
2019-05-18T00:07:28.587Z,7.80
2019-05-18T00:09:57.015Z,7.60
2019-05-18T00:12:25.420Z,7.50
2019-05-18T00:14:53.824Z,7.50
2019-05-18T00:17:25.225Z,7.30
2019-05-18T00:19:52.917Z,7.20
2019-05-18T00:22:21.317Z,7.10
2019-05-18T00:24:49.722Z,7.20
2019-05-18T00:27:18.130Z,7.10
2019-05-18T00:29:46.530Z,7.10
2019-05-18T00:32:14.948Z,7.10
2019-05-18T00:34:43.342Z,7.00
2019-05-18T00:37:11.755Z,7.00
2019-05-18T00:39:40.150Z,7.00
2019-05-18T00:42:08.562Z,7.00
2019-05-18T00:44:36.957Z,6.90
2019-05-18T00:47:05.358Z,6.90
2019-05-18T00:49:33.766Z,6.80
2019-05-18T00:52:02.167Z,7.00
2019-05-18T00:54:30.571Z,7.10
2019-05-18T00:56:58.978Z,7.00
2019-05-18T00:59:27.378Z,6.90
2019-05-18T01:01:55.787Z,6.90
2019-05-18T01:04:24.197Z,6.90
2019-05-18T01:06:52.610Z,6.80
2019-05-18T01:09:21.027Z,6.80
2019-05-18T01:11:49.498Z,6.80
2019-05-18T01:14:17.898Z,6.70
2019-05-18T01:16:46.306Z,6.60
2019-05-18T01:19:14.706Z,6.50
2019-05-18T01:21:46.678Z,6.50
2019-05-18T01:24:15.078Z,6.40
2019-05-18T01:26:43.493Z,6.40
2019-05-18T01:29:11.900Z,6.70
2019-05-18T01:31:40.306Z,6.70
2019-05-18T01:34:08.710Z,6.60
2019-05-18T01:36:37.122Z,6.60
2019-05-18T01:39:06.794Z,6.50
2019-05-18T01:41:35.203Z,6.40
2019-05-18T01:44:03.665Z,6.30
2019-05-18T01:46:32.085Z,6.20
2019-05-18T01:49:00.473Z,6.20
2019-05-18T01:51:28.886Z,6.20
2019-05-18T01:53:57.287Z,6.30
2019-05-18T01:56:25.709Z,6.50
2019-05-18T01:58:54.118Z,6.50
2019-05-18T02:01:22.522Z,6.50
2019-05-18T02:03:50.930Z,6.60
2019-05-18T02:06:19.342Z,6.60
2019-05-18T02:08:47.737Z,6.50
2019-05-18T02:11:16.136Z,6.40
2019-05-18T02:13:44.541Z,6.30
2019-05-18T02:16:12.949Z,6.20
2019-05-18T02:18:41.341Z,6.00
2019-05-18T02:21:09.743Z,6.00
2019-05-18T02:23:38.159Z,5.90
2019-05-18T02:26:06.562Z,5.80
2019-05-18T02:28:34.958Z,5.70
2019-05-18T02:31:03.355Z,5.60
2019-05-18T02:33:31.759Z,5.60
2019-05-18T02:36:00.159Z,5.60
2019-05-18T02:38:28.567Z,5.50
2019-05-18T02:40:56.974Z,5.40
2019-05-18T02:43:25.371Z,5.30
2019-05-18T02:45:53.774Z,5.30
2019-05-18T02:48:22.179Z,5.20
2019-05-18T02:50:50.573Z,5.30
2019-05-18T02:53:18.980Z,5.40
2019-05-18T02:55:47.407Z,5.50
2019-05-18T02:58:15.871Z,5.60
2019-05-18T03:00:44.266Z,5.60
2019-05-18T03:03:12.676Z,5.70
2019-05-18T03:05:41.066Z,5.70
2019-05-18T03:08:09.471Z,5.80
2019-05-18T03:10:37.876Z,5.80
2019-05-18T03:13:06.349Z,5.80
2019-05-18T03:15:34.742Z,5.80
2019-05-18T03:18:03.152Z,5.90
2019-05-18T03:20:31.552Z,6.00
2019-05-18T03:22:59.954Z,5.90
2019-05-18T03:25:28.345Z,5.90
2019-05-18T03:27:56.759Z,5.90
2019-05-18T03:30:25.175Z,5.80
2019-05-18T03:32:53.627Z,5.80
2019-05-18T03:35:22.121Z,5.50
2019-05-18T03:37:50.578Z,5.60
2019-05-18T03:40:19.115Z,5.60
2019-05-18T03:42:47.518Z,5.50
2019-05-18T03:45:15.986Z,5.60
2019-05-18T03:47:44.379Z,5.70
2019-05-18T03:50:12.852Z,5.70
2019-05-18T03:52:41.262Z,5.70
2019-05-18T03:55:09.798Z,5.80
2019-05-18T03:57:38.210Z,5.80
2019-05-18T04:00:08.095Z,5.80
2019-05-18T04:02:36.493Z,5.90
2019-05-18T04:05:06.732Z,5.90
2019-05-18T04:07:35.144Z,6.00
2019-05-18T04:10:07.554Z,6.00
2019-05-18T04:12:36.016Z,6.10
2019-05-18T04:15:05.934Z,6.10
2019-05-18T04:17:34.332Z,6.10
2019-05-18T04:20:04.080Z,6.10
2019-05-18T04:22:32.604Z,6.10
2019-05-18T04:25:01.007Z,6.20
2019-05-18T04:27:29.411Z,6.20
2019-05-18T04:29:57.805Z,6.20
2019-05-18T04:32:26.298Z,6.10
2019-05-18T04:34:54.694Z,6.10
2019-05-18T04:37:23.125Z,6.00
2019-05-18T04:39:51.599Z,6.20
2019-05-18T04:42:19.998Z,6.30
2019-05-18T04:44:48.390Z,6.40
2019-05-18T04:47:16.790Z,6.40
2019-05-18T04:50:02.114Z,6.50
2019-05-18T04:52:15.321Z,6.60
2019-05-18T04:54:43.721Z,6.70
2019-05-18T04:57:12.132Z,6.80
2019-05-18T04:59:40.527Z,6.80
2019-05-18T05:02:08.998Z,6.80
2019-05-18T05:04:37.695Z,6.90
2019-05-18T05:07:06.090Z,6.90
2019-05-18T05:09:34.486Z,7.00
2019-05-18T05:12:02.885Z,7.00
2019-05-18T05:14:31.289Z,7.10
2019-05-18T05:16:59.694Z,7.10
2019-05-18T05:19:28.095Z,7.30
2019-05-18T05:21:56.484Z,7.40
2019-05-18T05:24:24.886Z,7.50
2019-05-18T05:26:53.359Z,7.60
2019-05-18T05:29:21.815Z,7.60
2019-05-18T05:31:50.403Z,7.70
2019-05-18T05:34:18.870Z,7.80
2019-05-18T05:36:47.328Z,7.90
2019-05-18T05:39:15.721Z,8.00
2019-05-18T05:41:44.126Z,8.20
2019-05-18T05:44:12.775Z,8.20
2019-05-18T05:46:41.178Z,8.40
2019-05-18T05:49:09.586Z,8.60
2019-05-18T05:51:37.990Z,8.70
2019-05-18T05:54:06.443Z,8.80
2019-05-18T05:56:34.869Z,8.90
2019-05-18T05:59:03.276Z,9.10
2019-05-18T06:01:31.674Z,9.20
2019-05-18T06:04:00.077Z,9.40
2019-05-18T06:06:28.487Z,9.50
2019-05-18T06:08:56.884Z,9.70
2019-05-18T06:11:25.290Z,9.80
2019-05-18T06:13:53.938Z,10.00
2019-05-18T06:16:22.347Z,10.10
2019-05-18T06:18:50.780Z,10.30
2019-05-18T06:21:19.177Z,10.40
2019-05-18T06:23:47.590Z,10.60
2019-05-18T06:26:16.006Z,10.80
2019-05-18T06:28:44.410Z,11.00
2019-05-18T06:31:12.814Z,11.10
2019-05-18T06:33:41.234Z,11.40
2019-05-18T06:36:09.635Z,11.50
2019-05-18T06:38:38.050Z,11.70
2019-05-18T06:41:06.454Z,11.90
2019-05-18T06:43:34.871Z,12.00
2019-05-18T06:46:03.280Z,12.10
2019-05-18T06:48:31.767Z,12.20
2019-05-18T06:51:07.263Z,12.40
2019-05-18T06:53:30.377Z,12.50
2019-05-18T06:55:59.118Z,12.80
2019-05-18T06:58:28.003Z,12.90
2019-05-18T07:00:56.473Z,13.10
2019-05-18T07:03:24.971Z,13.20
2019-05-18T07:05:53.401Z,13.50
2019-05-18T07:08:21.816Z,13.80
2019-05-18T07:10:50.292Z,13.90
2019-05-18T07:13:18.705Z,14.30
2019-05-18T07:15:47.106Z,14.60
2019-05-18T07:18:15.508Z,14.80
2019-05-18T07:20:43.938Z,15.50
2019-05-18T07:23:12.338Z,16.60
2019-05-18T07:25:40.760Z,18.90
2019-05-18T07:28:09.228Z,21.00
2019-05-18T07:30:37.637Z,21.90
2019-05-18T07:33:06.122Z,23.80
2019-05-18T07:35:34.646Z,24.40
2019-05-18T07:38:03.107Z,24.70
2019-05-18T07:40:31.542Z,26.10
2019-05-18T07:42:59.986Z,27.00
2019-05-18T07:45:28.406Z,28.10
2019-05-18T07:47:56.809Z,27.60
2019-05-18T07:50:25.219Z,29.10
2019-05-18T07:52:53.620Z,30.00
2019-05-18T07:55:22.061Z,30.60
2019-05-18T07:57:50.517Z,30.00
2019-05-18T08:00:18.932Z,30.40
2019-05-18T08:02:47.341Z,30.30
2019-05-18T08:05:16.232Z,29.20
2019-05-18T08:07:44.643Z,30.90
2019-05-18T08:10:13.559Z,30.50
2019-05-18T08:12:41.965Z,31.50
2019-05-18T08:15:11.023Z,32.10
2019-05-18T08:17:39.444Z,32.70
2019-05-18T08:20:08.553Z,33.70
2019-05-18T08:22:36.959Z,33.10
2019-05-18T08:25:07.113Z,32.90
2019-05-18T08:27:35.526Z,32.90
2019-05-18T08:30:05.785Z,33.50
2019-05-18T08:32:34.196Z,31.80
2019-05-18T08:35:02.609Z,30.70
2019-05-18T08:37:31.023Z,31.00
2019-05-18T08:39:59.456Z,32.30
2019-05-18T08:42:27.924Z,33.00
2019-05-18T08:44:56.334Z,32.70
2019-05-18T08:47:24.739Z,33.10
2019-05-18T08:49:53.146Z,32.70
2019-05-18T08:52:21.569Z,34.50
2019-05-18T08:54:49.975Z,34.00
2019-05-18T08:57:18.418Z,33.10
2019-05-18T08:59:46.837Z,33.40
2019-05-18T09:02:15.239Z,34.40
2019-05-18T09:04:43.665Z,34.80
2019-05-18T09:07:12.079Z,33.60
2019-05-18T09:09:40.487Z,32.50
2019-05-18T09:12:08.890Z,32.50
2019-05-18T09:14:37.294Z,32.70
2019-05-18T09:17:05.697Z,33.00
2019-05-18T09:19:34.103Z,33.00
2019-05-18T09:22:02.510Z,33.70
2019-05-18T09:24:30.918Z,34.50
2019-05-18T09:26:59.342Z,36.20
2019-05-18T09:29:27.753Z,35.90
2019-05-18T09:31:56.162Z,37.30
2019-05-18T09:34:24.566Z,37.50
2019-05-18T09:36:53.010Z,36.80
2019-05-18T09:39:21.465Z,37.20
2019-05-18T09:41:49.873Z,37.50
2019-05-18T09:44:18.286Z,36.90
2019-05-18T09:46:46.699Z,36.20
2019-05-18T09:49:15.106Z,36.40
2019-05-18T09:51:43.526Z,36.50
2019-05-18T09:54:11.930Z,36.00
2019-05-18T09:56:40.346Z,35.60
2019-05-18T09:59:08.983Z,36.60
2019-05-18T10:01:37.394Z,35.50
2019-05-18T10:04:05.869Z,35.40
2019-05-18T10:06:34.282Z,36.60
2019-05-18T10:09:03.086Z,35.40
2019-05-18T10:11:38.259Z,35.10
2019-05-18T10:14:01.882Z,35.90
2019-05-18T10:16:30.284Z,32.50
2019-05-18T10:18:58.690Z,32.80
2019-05-18T10:21:27.396Z,33.30
2019-05-18T10:23:55.787Z,33.90
2019-05-18T10:26:24.209Z,34.10
2019-05-18T10:28:52.619Z,33.60
2019-05-18T10:31:21.042Z,34.00
2019-05-18T10:33:49.445Z,34.10
2019-05-18T10:36:17.853Z,33.70
2019-05-18T10:38:46.255Z,33.80
2019-05-18T10:41:14.665Z,32.30
2019-05-18T10:43:46.835Z,33.80
2019-05-18T10:46:13.253Z,34.20
2019-05-18T10:48:41.654Z,32.80
2019-05-18T10:51:10.143Z,32.40
2019-05-18T10:53:38.547Z,32.50
2019-05-18T10:56:06.961Z,32.00
2019-05-18T10:58:35.365Z,32.80
2019-05-18T11:01:03.858Z,32.80
2019-05-18T11:03:32.266Z,32.40
2019-05-18T11:06:00.682Z,31.90
2019-05-18T11:08:29.088Z,31.80
2019-05-18T11:10:57.511Z,32.20
2019-05-18T11:13:25.939Z,32.80
2019-05-18T11:15:54.345Z,33.00
2019-05-18T11:18:22.758Z,33.50
2019-05-18T11:20:51.167Z,32.00
2019-05-18T11:23:19.579Z,33.30
2019-05-18T11:25:48.011Z,32.70
2019-05-18T11:28:16.401Z,33.00
2019-05-18T11:30:44.814Z,32.60
2019-05-18T11:33:13.232Z,33.30
2019-05-18T11:35:41.641Z,33.50
2019-05-18T11:38:10.052Z,33.30
2019-05-18T11:40:38.454Z,33.30
2019-05-18T11:43:06.953Z,32.70
2019-05-18T11:45:35.366Z,32.60
2019-05-18T11:48:03.916Z,32.00
2019-05-18T11:50:32.327Z,31.80
2019-05-18T11:53:00.734Z,32.00
2019-05-18T11:55:29.142Z,32.60
2019-05-18T11:57:57.544Z,33.00
2019-05-18T12:00:27.918Z,32.30
2019-05-18T12:02:56.407Z,32.90
2019-05-18T12:05:24.809Z,32.60
2019-05-18T12:07:53.217Z,31.40
2019-05-18T12:10:23.164Z,30.90
2019-05-18T12:12:51.654Z,31.70
2019-05-18T12:15:20.399Z,31.80
2019-05-18T12:17:48.802Z,30.90
2019-05-18T12:20:18.273Z,30.90
2019-05-18T12:22:46.683Z,31.00
2019-05-18T12:25:15.328Z,31.50
2019-05-18T12:27:43.780Z,31.50
2019-05-18T12:30:13.103Z,30.00
2019-05-18T12:32:41.514Z,29.00
2019-05-18T12:35:11.061Z,28.70
2019-05-18T12:37:39.539Z,28.80
2019-05-18T12:40:08.884Z,28.80
2019-05-18T12:42:37.549Z,29.10
2019-05-18T12:45:06.983Z,30.20
2019-05-18T12:47:35.755Z,30.80
2019-05-18T12:50:06.810Z,31.00
2019-05-18T12:52:35.243Z,31.80
2019-05-18T12:55:04.678Z,30.90
2019-05-18T12:57:33.091Z,29.80
2019-05-18T13:00:01.511Z,29.40
2019-05-18T13:02:30.099Z,28.00
2019-05-18T13:04:58.538Z,27.60
2019-05-18T13:07:26.962Z,27.60
2019-05-18T13:09:55.382Z,27.10
2019-05-18T13:12:23.785Z,26.50
2019-05-18T13:14:52.198Z,26.50
2019-05-18T13:17:21.392Z,26.90
2019-05-18T13:19:49.952Z,27.00
2019-05-18T13:22:18.384Z,27.40
2019-05-18T13:24:46.784Z,28.10
2019-05-18T13:27:15.347Z,29.00
2019-05-18T13:29:43.750Z,29.90
2019-05-18T13:32:12.180Z,30.50
2019-05-18T13:34:40.581Z,30.90
2019-05-18T13:37:08.985Z,30.90
2019-05-18T13:39:37.475Z,31.40
2019-05-18T13:42:05.889Z,30.40
2019-05-18T13:44:34.294Z,29.90
2019-05-18T13:47:02.709Z,29.30
2019-05-18T13:49:31.102Z,29.20
2019-05-18T13:51:59.516Z,29.30
2019-05-18T13:54:27.926Z,28.90
2019-05-18T13:56:56.344Z,28.60
2019-05-18T13:59:24.814Z,28.00
2019-05-18T14:01:55.062Z,27.40
2019-05-18T14:04:23.350Z,26.90
2019-05-18T14:06:51.753Z,26.60
2019-05-18T14:09:20.150Z,26.30
2019-05-18T14:11:50.832Z,26.10
2019-05-18T14:14:19.270Z,25.80
2019-05-18T14:16:47.678Z,25.60
2019-05-18T14:19:16.095Z,25.70
2019-05-18T14:21:44.574Z,26.00
2019-05-18T14:24:12.983Z,26.40
2019-05-18T14:26:41.384Z,26.80
2019-05-18T14:29:09.796Z,27.20
2019-05-18T14:31:38.202Z,26.90
2019-05-18T14:34:06.614Z,26.30
2019-05-18T14:36:35.027Z,25.90
2019-05-18T14:39:03.776Z,25.40
2019-05-18T14:41:32.172Z,25.10
2019-05-18T14:44:00.585Z,24.60
2019-05-18T14:46:28.999Z,24.40
2019-05-18T14:48:57.422Z,24.30
2019-05-18T14:51:26.066Z,24.10
2019-05-18T14:53:54.478Z,24.20
2019-05-18T14:56:22.885Z,24.60
2019-05-18T14:58:51.320Z,24.70
2019-05-18T15:01:19.847Z,25.00
2019-05-18T15:03:48.274Z,25.30
2019-05-18T15:06:16.750Z,25.50
2019-05-18T15:08:45.171Z,25.40
2019-05-18T15:11:13.572Z,25.50
2019-05-18T15:13:41.985Z,25.70
2019-05-18T15:16:10.393Z,25.80
2019-05-18T15:18:38.807Z,25.70
2019-05-18T15:21:07.277Z,25.30
2019-05-18T15:23:35.704Z,25.20
2019-05-18T15:26:04.107Z,25.10
2019-05-18T15:28:32.522Z,25.20
2019-05-18T15:31:00.930Z,25.00
2019-05-18T15:33:29.347Z,25.00
2019-05-18T15:35:57.753Z,25.00
2019-05-18T15:38:26.263Z,24.80
2019-05-18T15:40:54.680Z,24.70
2019-05-18T15:43:23.154Z,24.50
2019-05-18T15:45:51.541Z,24.40
2019-05-18T15:48:21.024Z,24.30
2019-05-18T15:50:49.497Z,24.00
2019-05-18T15:53:17.914Z,24.00
2019-05-18T15:55:46.317Z,23.90
2019-05-18T15:58:14.722Z,23.90
2019-05-18T16:00:43.137Z,23.70
2019-05-18T16:03:11.545Z,23.60
2019-05-18T16:05:39.945Z,23.50
2019-05-18T16:08:08.350Z,23.30
2019-05-18T16:10:36.776Z,23.20
2019-05-18T16:13:05.194Z,23.10
2019-05-18T16:15:33.606Z,23.00
2019-05-18T16:18:02.001Z,23.00
2019-05-18T16:20:30.413Z,22.90
2019-05-18T16:22:58.823Z,22.80
2019-05-18T16:25:27.706Z,22.60
2019-05-18T16:27:56.110Z,22.50
2019-05-18T16:30:24.525Z,22.40
2019-05-18T16:32:52.936Z,22.20
2019-05-18T16:35:21.414Z,22.10
2019-05-18T16:37:49.822Z,22.00
2019-05-18T16:40:18.585Z,21.90
2019-05-18T16:42:47.029Z,21.90
2019-05-18T16:45:16.511Z,21.80
2019-05-18T16:47:44.912Z,21.90
2019-05-18T16:50:13.753Z,21.90
2019-05-18T16:52:42.182Z,21.90
2019-05-18T16:55:10.934Z,21.90
2019-05-18T16:57:39.344Z,21.80
2019-05-18T17:00:16.008Z,21.70
2019-05-18T17:02:43.781Z,21.60
2019-05-18T17:05:13.064Z,21.40
2019-05-18T17:07:41.466Z,21.30
2019-05-18T17:10:11.418Z,21.30
2019-05-18T17:12:39.895Z,21.20
2019-05-18T17:15:09.213Z,21.30
2019-05-18T17:17:38.102Z,21.30
2019-05-18T17:20:07.074Z,21.30
2019-05-18T17:22:35.477Z,21.20
2019-05-18T17:25:04.355Z,21.20
2019-05-18T17:27:32.845Z,21.20
2019-05-18T17:30:01.259Z,21.10
2019-05-18T17:32:29.663Z,21.00
2019-05-18T17:34:58.086Z,20.90
2019-05-18T17:37:26.490Z,20.90
2019-05-18T17:39:54.896Z,20.90
2019-05-18T17:42:23.300Z,20.80
2019-05-18T17:44:51.741Z,20.70
2019-05-18T17:47:20.147Z,20.60
2019-05-18T17:49:48.572Z,20.50
2019-05-18T17:52:16.977Z,20.40
2019-05-18T17:54:45.462Z,20.30
2019-05-18T17:57:13.867Z,20.30
2019-05-18T17:59:42.288Z,20.20
2019-05-18T18:02:10.698Z,20.10
2019-05-18T18:04:39.114Z,19.90
2019-05-18T18:07:07.519Z,19.80
2019-05-18T18:09:35.959Z,19.70
2019-05-18T18:12:04.482Z,19.50
2019-05-18T18:14:32.901Z,19.30
2019-05-18T18:17:01.318Z,19.20
2019-05-18T18:19:29.726Z,19.00
2019-05-18T18:21:58.155Z,18.90
2019-05-18T18:24:26.613Z,18.80
2019-05-18T18:26:55.029Z,18.60
2019-05-18T18:29:23.463Z,18.50
2019-05-18T18:31:51.865Z,18.30
2019-05-18T18:34:20.274Z,18.20
2019-05-18T18:36:48.682Z,18.10
2019-05-18T18:39:17.091Z,18.00
2019-05-18T18:41:45.518Z,17.90
2019-05-18T18:44:13.910Z,17.80
2019-05-18T18:46:42.327Z,17.60
2019-05-18T18:49:10.730Z,17.60
2019-05-18T18:51:39.143Z,17.50
2019-05-18T18:54:07.545Z,17.30
2019-05-18T18:56:35.954Z,17.20
2019-05-18T18:59:04.427Z,17.10
2019-05-18T19:01:32.842Z,16.90
2019-05-18T19:04:01.267Z,16.80
2019-05-18T19:06:29.679Z,16.70
2019-05-18T19:08:58.088Z,16.50
2019-05-18T19:11:26.518Z,16.40
2019-05-18T19:13:54.918Z,16.30
2019-05-18T19:16:23.327Z,16.20
2019-05-18T19:18:51.741Z,16.00
2019-05-18T19:21:20.166Z,15.90
2019-05-18T19:23:48.564Z,15.80
2019-05-18T19:26:16.988Z,15.70
2019-05-18T19:28:45.395Z,15.60
2019-05-18T19:31:13.883Z,15.50
2019-05-18T19:33:42.376Z,15.40
2019-05-18T19:36:11.068Z,15.40
2019-05-18T19:38:39.464Z,15.20
2019-05-18T19:41:07.865Z,15.20
2019-05-18T19:43:36.267Z,15.10
2019-05-18T19:46:04.835Z,15.10
2019-05-18T19:48:33.244Z,15.00
2019-05-18T19:51:01.672Z,15.00
2019-05-18T19:53:30.074Z,14.90
2019-05-18T19:55:58.491Z,15.00
2019-05-18T19:58:26.895Z,14.80
2019-05-18T20:00:55.327Z,14.70
2019-05-18T20:03:23.734Z,14.70
2019-05-18T20:05:52.172Z,14.70
2019-05-18T20:08:20.582Z,14.70
2019-05-18T20:10:48.989Z,14.60
2019-05-18T20:13:17.403Z,14.60
2019-05-18T20:15:45.814Z,14.60
2019-05-18T20:18:14.211Z,14.60
2019-05-18T20:20:42.627Z,14.60
2019-05-18T20:23:11.043Z,14.50
2019-05-18T20:25:39.446Z,14.50
2019-05-18T20:28:07.862Z,14.50
2019-05-18T20:30:36.272Z,14.40
2019-05-18T20:33:04.741Z,14.40
2019-05-18T20:35:34.861Z,14.40
2019-05-18T20:38:03.750Z,14.40
2019-05-18T20:40:32.159Z,14.50
2019-05-18T20:43:00.593Z,14.50
2019-05-18T20:45:29.046Z,14.50
2019-05-18T20:50:26.241Z,14.40
2019-05-18T20:52:54.673Z,14.40
2019-05-18T20:55:23.069Z,14.30
2019-05-18T20:57:51.496Z,14.30
2019-05-18T21:00:20.107Z,14.30
2019-05-18T21:02:48.534Z,14.30
2019-05-18T21:05:17.090Z,14.20
2019-05-18T21:07:45.615Z,14.20
2019-05-18T21:10:14.468Z,14.10
2019-05-18T21:12:42.881Z,14.10
2019-05-18T21:15:12.666Z,14.10
2019-05-18T21:17:41.125Z,14.00
2019-05-18T21:20:10.046Z,14.00
2019-05-18T21:22:38.452Z,14.00
2019-05-18T21:25:07.206Z,14.00
2019-05-18T21:27:35.618Z,14.00
2019-05-18T21:30:05.588Z,14.00
2019-05-18T21:32:34.006Z,14.00
2019-05-18T21:35:02.702Z,13.90
2019-05-18T21:37:31.230Z,13.80
2019-05-18T21:39:59.632Z,13.80
2019-05-18T21:42:28.062Z,13.70
2019-05-18T21:44:56.510Z,13.50
2019-05-18T21:47:24.946Z,13.50
2019-05-18T21:49:53.446Z,13.40
2019-05-18T21:52:21.864Z,13.40
2019-05-18T21:54:50.296Z,13.30
2019-05-18T21:57:18.794Z,13.30
2019-05-18T21:59:47.201Z,13.30
2019-05-18T22:02:15.631Z,13.20
2019-05-18T22:04:44.038Z,13.20
2019-05-18T22:07:12.478Z,13.30
2019-05-18T22:09:40.951Z,13.30
2019-05-18T22:12:09.430Z,13.20
2019-05-18T22:14:37.854Z,13.10
2019-05-18T22:17:06.255Z,12.90
2019-05-18T22:19:34.674Z,12.80
2019-05-18T22:22:03.088Z,12.90
2019-05-18T22:24:31.506Z,12.80
2019-05-18T22:26:59.918Z,12.90
2019-05-18T22:29:28.349Z,12.90
2019-05-18T22:31:56.762Z,12.90
2019-05-18T22:34:25.183Z,12.90
2019-05-18T22:36:53.681Z,12.90
2019-05-18T22:39:22.108Z,12.90
2019-05-18T22:41:50.522Z,13.00
2019-05-18T22:44:18.931Z,12.80
2019-05-18T22:46:47.349Z,12.70
2019-05-18T22:49:15.753Z,12.60
2019-05-18T22:51:44.157Z,12.50
2019-05-18T22:54:12.569Z,12.40
2019-05-18T22:56:41.098Z,12.30
2019-05-18T22:59:09.586Z,12.20
2019-05-18T23:01:38.009Z,12.20
2019-05-18T23:04:06.425Z,12.10
2019-05-18T23:06:34.840Z,12.10
2019-05-18T23:09:04.685Z,12.00
2019-05-18T23:11:33.160Z,12.00
2019-05-18T23:14:01.584Z,11.90
2019-05-18T23:16:29.985Z,11.80
2019-05-18T23:18:58.444Z,11.80
2019-05-18T23:21:26.921Z,11.70
2019-05-18T23:23:55.329Z,11.70
2019-05-18T23:26:23.742Z,11.60
2019-05-18T23:28:52.156Z,11.60
2019-05-18T23:31:20.563Z,11.50
2019-05-18T23:33:48.999Z,11.30
2019-05-18T23:36:17.397Z,11.30
2019-05-18T23:38:45.883Z,11.20
2019-05-18T23:41:14.310Z,11.20
2019-05-18T23:43:42.710Z,11.20
2019-05-18T23:46:11.212Z,11.10
2019-05-18T23:48:39.613Z,11.00
2019-05-18T23:51:08.017Z,10.90
2019-05-18T23:53:36.430Z,10.90
2019-05-18T23:56:04.844Z,10.90
2019-05-18T23:58:33.266Z,10.90
